Time;durP1;ratioP1;P1;durP2;ratioP2;P2;SDS_P1;SDS_P2;PMS_P1;PMS_P2;Temp;Humidity;BMP_temperature;BMP_pressure;BME280_temperature;BME280_humidity;BME280_pressure;Samples;Min_cycle;Max_cycle;Signal;HPM_P1;HPM_P2
2023/02/28 00:01:25;;;;;;;;;3.00;3.00;;;;;20.67;30.85;102712.03;5038793;28;45242;-71
2023/02/28 00:03:50;;;;;;;;;1.75;1.00;;;;;20.65;30.56;102707.84;5038524;28;45726;-72
2023/02/28 00:06:16;;;;;;;;;4.00;1.00;;;;;20.66;30.69;102710.34;5020722;28;46036;-71
2023/02/28 00:08:42;;;;;;;;;1.00;1.00;;;;;20.64;30.22;102709.66;5038336;28;45535;-69
2023/02/28 00:11:10;;;;;;;;;2.00;1.00;;;;;20.62;30.34;102698.38;5038003;28;45268;-70
2023/02/28 00:13:38;;;;;;;;;2.00;2.00;;;;;20.64;30.66;102714.94;5038496;28;45369;-71
2023/02/28 00:16:07;;;;;;;;;1.00;1.00;;;;;20.64;30.69;102714.94;5038202;28;45310;-71
2023/02/28 00:18:32;;;;;;;;;1.25;1.25;;;;;20.63;30.61;102716.75;5038465;28;45411;-72
2023/02/28 00:20:58;;;;;;;;;1.00;1.00;;;;;20.57;30.34;102706.69;5038411;28;45526;-72
2023/02/28 00:23:24;;;;;;;;;3.00;1.75;;;;;20.63;30.62;102711.44;5037895;28;45409;-72
2023/02/28 00:25:50;;;;;;;;;1.00;1.00;;;;;20.59;30.61;102707.38;5038109;28;45496;-72
2023/02/28 00:28:16;;;;;;;;;2.00;2.00;;;;;20.62;30.81;102715.06;5038351;28;45296;-72
2023/02/28 00:30:42;;;;;;;;;2.00;1.00;;;;;20.63;30.61;102716.75;5038110;28;45425;-72
2023/02/28 00:33:07;;;;;;;;;2.00;1.00;;;;;20.59;30.32;102703.91;5037338;28;45453;-71
2023/02/28 00:35:33;;;;;;;;;1.00;1.00;;;;;20.63;30.25;102708.00;5037831;28;45356;-71
2023/02/28 00:37:58;;;;;;;;;1.00;1.00;;;;;20.62;30.35;102708.94;5037923;28;45425;-71
2023/02/28 00:40:23;;;;;;;;;2.50;1.25;;;;;20.63;30.57;102706.16;5038216;28;45391;-71
2023/02/28 00:42:49;;;;;;;;;0.00;0.00;;;;;20.63;30.47;102710.63;5038121;28;46205;-71
2023/02/28 00:45:14;;;;;;;;;1.00;1.00;;;;;20.63;30.51;102711.44;5037694;28;45435;-71
2023/02/28 00:47:39;;;;;;;;;3.00;1.25;;;;;20.62;30.39;102712.44;5037373;28;45566;-71
2023/02/28 00:50:05;;;;;;;;;1.50;1.00;;;;;20.62;30.57;102709.78;5038091;28;45334;-71
2023/02/28 00:52:31;;;;;;;;;1.00;1.00;;;;;20.63;30.31;102710.63;5037473;28;45295;-71
2023/02/28 00:54:56;;;;;;;;;1.25;1.00;;;;;20.61;30.67;102704.59;5037011;28;45370;-71
2023/02/28 00:57:21;;;;;;;;;1.00;1.00;;;;;20.60;30.36;102703.78;5038049;28;45216;-71
2023/02/28 00:59:47;;;;;;;;;2.25;0.50;;;;;20.47;30.34;102690.72;5037630;28;45331;-71
2023/02/28 01:02:12;;;;;;;;;1.00;1.00;;;;;20.60;30.53;102706.44;5019753;28;48187;-71
2023/02/28 01:04:38;;;;;;;;;1.25;1.00;;;;;20.59;30.33;102711.81;5037691;28;45352;-71
2023/02/28 01:07:03;;;;;;;;;1.50;1.00;;;;;20.58;30.34;102705.69;5037442;28;45409;-71
2023/02/28 01:09:29;;;;;;;;;2.75;1.00;;;;;20.45;30.37;102694.47;5037810;28;45273;-71
2023/02/28 01:11:55;;;;;;;;;2.00;2.00;;;;;20.57;30.42;102711.97;5037426;28;47208;-71
2023/02/28 01:14:20;;;;;;;;;1.00;1.00;;;;;20.57;30.41;102711.97;5037302;28;45467;-71
2023/02/28 01:16:45;;;;;;;;;2.00;2.00;;;;;20.55;30.38;102713.91;5037810;28;45402;-71
2023/02/28 01:19:11;;;;;;;;;0.50;0.50;;;;;20.58;30.42;102718.09;5037412;28;45362;-71
2023/02/28 01:21:36;;;;;;;;;2.00;1.00;;;;;20.57;30.49;102724.34;5037073;28;46012;-72
2023/02/28 01:24:03;;;;;;;;;3.00;1.00;;;;;20.57;30.59;102725.19;5036732;28;45386;-71
2023/02/28 01:26:29;;;;;;;;;1.25;1.25;;;;;20.53;30.22;102715.00;5037424;28;45480;-71
2023/02/28 01:28:54;;;;;;;;;1.75;1.75;;;;;20.56;30.26;102715.56;5037359;28;45369;-71
2023/02/28 01:31:22;;;;;;;;;1.00;1.00;;;;;20.47;30.59;102697.81;5037024;28;45960;-71
2023/02/28 01:33:47;;;;;;;;;1.25;1.00;;;;;20.56;30.52;102717.34;5037249;28;45367;-71
2023/02/28 01:36:15;;;;;;;;;2.00;2.00;;;;;20.55;30.22;102710.41;5036811;28;45359;-71
2023/02/28 01:38:41;;;;;;;;;3.25;3.00;;;;;20.55;30.23;102711.25;5037189;28;45573;-70
2023/02/28 01:41:07;;;;;;;;;1.50;1.50;;;;;20.55;30.52;102711.25;5036989;28;46234;-72
2023/02/28 01:43:41;;;;;;;;;2.00;2.00;;;;;20.55;30.39;102707.75;5037182;28;45326;-71
2023/02/28 01:46:07;;;;;;;;;2.50;2.50;;;;;20.54;30.46;102699.00;5037084;28;45374;-71
2023/02/28 01:48:36;;;;;;;;;2.50;2.00;;;;;20.55;30.20;102694.53;5036908;28;45287;-72
2023/02/28 01:51:08;;;;;;;;;1.00;1.00;;;;;20.54;30.33;102695.50;5036342;28;47418;-70
2023/02/28 01:53:38;;;;;;;;;1.00;1.00;;;;;20.48;30.15;102689.75;5036840;28;45402;-71
2023/02/28 01:56:08;;;;;;;;;2.25;1.75;;;;;20.54;30.17;102701.63;5036816;28;45466;-72
2023/02/28 01:58:35;;;;;;;;;2.50;2.50;;;;;20.44;30.05;102680.38;5036866;28;45371;-72
2023/02/28 02:01:02;;;;;;;;;2.00;2.00;;;;;20.54;30.56;102701.63;5036593;28;45406;-71
2023/02/28 02:03:29;;;;;;;;;3.75;0.75;;;;;20.49;30.37;102702.00;5036662;28;45288;-71
2023/02/28 02:05:54;;;;;;;;;2.50;2.50;;;;;20.53;30.00;102705.25;5036424;28;45408;-71
2023/02/28 02:08:23;;;;;;;;;2.00;2.00;;;;;20.48;30.19;102697.66;5036605;28;45422;-71
2023/02/28 02:10:58;;;;;;;;;1.25;1.25;;;;;20.55;30.29;102699.84;5036725;28;46990;-71
2023/02/28 02:13:55;;;;;;;;;2.25;2.25;;;;;20.55;30.22;102700.69;5036399;28;45420;-71
2023/02/28 02:16:45;;;;;;;;;2.00;2.00;;;;;20.54;30.14;102691.06;5003607;28;45245;-71
2023/02/28 02:19:35;;;;;;;;;1.25;1.00;;;;;20.55;30.40;102710.41;5016262;28;45344;-71
2023/02/28 02:22:52;;;;;;;;;2.00;2.00;;;;;20.54;30.25;102703.44;5016459;28;47066;-72
2023/02/28 02:25:38;;;;;;;;;2.00;2.00;;;;;20.44;29.78;102690.13;5016391;28;45431;-71
2023/02/28 02:28:28;;;;;;;;;1.25;1.25;;;;;20.54;30.06;102706.06;5016609;28;45358;-71
2023/02/28 02:31:14;;;;;;;;;2.50;2.50;;;;;20.53;30.44;102713.19;5024449;28;45458;-71
2023/02/28 02:34:11;;;;;;;;;2.25;1.75;;;;;20.54;30.35;102714.84;5035753;28;46024;-71
2023/02/28 02:36:49;;;;;;;;;0.75;0.75;;;;;20.43;30.21;102696.38;5018103;28;45945;-71
2023/02/28 02:39:33;;;;;;;;;2.75;1.75;;;;;20.50;30.25;102709.00;5036328;28;45486;-71
2023/02/28 02:42:03;;;;;;;;;2.00;2.00;;;;;20.51;30.26;102705.38;5036293;28;45399;-71
2023/02/28 02:44:40;;;;;;;;;2.00;2.00;;;;;20.53;30.09;102701.78;5035964;28;46356;-71
2023/02/28 02:47:16;;;;;;;;;2.25;2.25;;;;;20.43;30.57;102691.09;5035824;28;45313;-71
2023/02/28 02:49:48;;;;;;;;;3.50;3.50;;;;;20.46;30.35;102699.59;5035732;28;45411;-71
2023/02/28 02:52:18;;;;;;;;;3.00;3.00;;;;;20.51;30.28;102700.06;5036142;28;45335;-71
2023/02/28 02:54:48;;;;;;;;;1.00;1.00;;;;;20.52;30.09;102706.22;5035861;28;46344;-71
2023/02/28 02:57:23;;;;;;;;;2.50;1.25;;;;;20.53;30.18;102707.91;5035790;28;45520;-72
2023/02/28 02:59:52;;;;;;;;;2.25;2.00;;;;;20.53;30.23;102709.69;5035817;28;45355;-71
2023/02/28 03:02:18;;;;;;;;;2.50;1.75;;;;;20.45;29.60;102713.81;5035680;28;45403;-71
2023/02/28 03:05:00;;;;;;;;;1.75;1.75;;;;;20.49;30.42;102712.59;5035636;28;47120;-71
2023/02/28 03:07:26;;;;;;;;;2.00;2.00;;;;;20.49;30.16;102709.94;5035680;28;45291;-71
2023/02/28 03:09:53;;;;;;;;;2.00;2.00;;;;;20.50;30.15;102718.72;5035216;28;45870;-71
2023/02/28 03:12:20;;;;;;;;;2.00;2.00;;;;;20.48;30.47;102723.31;5035790;28;45427;-72
2023/02/28 03:15:02;;;;;;;;;2.00;2.00;;;;;20.50;30.46;102726.66;5035294;28;46241;-70
2023/02/28 03:17:38;;;;;;;;;1.50;1.50;;;;;20.49;29.77;102733.75;5035402;28;45438;-70
2023/02/28 03:20:32;;;;;;;;;2.00;2.00;;;;;20.49;30.04;102733.75;5035844;28;45381;-70
2023/02/28 03:23:12;;;;;;;;;2.25;2.00;;;;;20.50;30.39;102737.22;5035702;28;45503;-71
2023/02/28 03:25:55;;;;;;;;;2.75;2.75;;;;;20.43;30.17;102731.56;5035383;28;45860;-70
2023/02/28 03:28:47;;;;;;;;;2.00;2.00;;;;;20.49;30.24;102739.03;5035345;28;45382;-71
2023/02/28 03:31:19;;;;;;;;;2.00;2.00;;;;;20.49;29.92;102739.03;5026981;28;45403;-71
2023/02/28 03:33:54;;;;;;;;;1.25;1.25;;;;;20.47;30.24;102738.31;5035094;28;45361;-71
2023/02/28 03:36:24;;;;;;;;;2.25;2.25;;;;;20.40;30.34;102719.44;5035067;28;46926;-71
2023/02/28 03:39:02;;;;;;;;;3.75;2.25;;;;;20.48;30.21;102733.88;5035268;28;45355;-71
2023/02/28 03:41:52;;;;;;;;;2.25;2.25;;;;;20.48;29.92;102733.88;5035461;28;45309;-70
2023/02/28 03:44:28;;;;;;;;;2.00;2.00;;;;;20.48;30.34;102734.69;5017385;28;45595;-71
2023/02/28 03:47:03;;;;;;;;;2.00;2.00;;;;;20.45;29.90;102734.13;5034762;28;47342;-70
2023/02/28 03:49:35;;;;;;;;;2.00;2.00;;;;;20.47;30.25;102738.31;5035154;28;45331;-71
2023/02/28 03:52:05;;;;;;;;;2.00;2.00;;;;;20.47;30.21;102732.19;5035366;28;45406;-71
2023/02/28 03:54:35;;;;;;;;;3.00;3.00;;;;;20.47;30.03;102732.19;5035134;28;45336;-71
2023/02/28 03:57:18;;;;;;;;;2.75;2.75;;;;;20.45;29.60;102734.97;5035022;28;46291;-71
2023/02/28 03:59:50;;;;;;;;;3.00;2.00;;;;;20.47;29.81;102730.38;5035098;28;45330;-70
2023/02/28 04:02:16;;;;;;;;;3.75;3.00;;;;;20.40;30.06;102716.81;5034867;28;45331;-71
2023/02/28 04:04:48;;;;;;;;;2.00;2.00;;;;;20.43;29.89;102728.13;5035086;28;45423;-69
2023/02/28 04:07:13;;;;;;;;;2.00;2.00;;;;;20.48;29.91;102733.88;5035056;28;46165;-71
2023/02/28 04:09:39;;;;;;;;;3.50;3.50;;;;;20.39;29.84;102725.72;5034772;28;45352;-71
2023/02/28 04:12:05;;;;;;;;;4.00;3.00;;;;;20.48;29.88;102728.59;5035172;28;45465;-71
2023/02/28 04:14:30;;;;;;;;;3.00;3.00;;;;;20.48;29.87;102731.22;5034518;28;45279;-71
2023/02/28 04:16:56;;;;;;;;;4.00;4.00;;;;;20.42;30.03;102737.00;5034758;28;47403;-71
2023/02/28 04:19:21;;;;;;;;;2.50;2.50;;;;;20.39;30.01;102727.50;5034973;28;45350;-71
2023/02/28 04:21:49;;;;;;;;;2.00;2.00;;;;;20.46;29.86;102739.28;5036690;28;45350;-71
2023/02/28 04:24:20;;;;;;;;;2.75;2.00;;;;;20.46;30.08;102743.72;5038422;28;45366;-71
2023/02/28 04:26:48;;;;;;;;;3.25;3.25;;;;;20.38;30.10;102736.41;5038183;28;45425;-71
2023/02/28 04:29:18;;;;;;;;;1.50;1.50;;;;;20.46;29.98;102736.63;5037741;28;45377;-71
2023/02/28 04:31:44;;;;;;;;;4.50;3.25;;;;;20.46;29.94;102741.06;5038147;28;45299;-71
2023/02/28 04:34:09;;;;;;;;;2.75;2.75;;;;;20.38;30.05;102736.41;5038043;28;45220;-71
2023/02/28 04:36:34;;;;;;;;;2.75;2.50;;;;;20.46;29.88;102751.63;5037903;28;46100;-71
2023/02/28 04:39:00;;;;;;;;;2.00;2.00;;;;;20.45;29.97;102750.81;5038160;28;45436;-71
2023/02/28 04:41:26;;;;;;;;;3.00;3.00;;;;;20.40;29.89;102745.06;5038220;28;45274;-71
2023/02/28 04:43:52;;;;;;;;;4.25;3.00;;;;;20.46;29.92;102746.34;5037685;28;45392;-71
2023/02/28 04:46:18;;;;;;;;;3.00;3.00;;;;;20.46;30.08;102751.63;5037924;28;47032;-71
2023/02/28 04:48:44;;;;;;;;;1.75;1.25;;;;;20.46;30.11;102754.28;5037679;28;45360;-70
2023/02/28 04:51:11;;;;;;;;;3.75;2.75;;;;;20.45;29.78;102756.13;5038072;28;45358;-71
2023/02/28 04:53:39;;;;;;;;;3.00;3.00;;;;;20.45;30.11;102757.91;5037883;28;45516;-71
2023/02/28 04:56:05;;;;;;;;;3.00;3.00;;;;;20.46;30.08;102767.50;5037676;28;46631;-72
2023/02/28 04:58:32;;;;;;;;;3.00;2.25;;;;;20.45;30.03;102761.41;5037388;28;45502;-69
2023/02/28 05:01:12;;;;;;;;;2.00;2.00;;;;;20.44;29.90;102765.00;5037768;28;45423;-70
2023/02/28 05:03:41;;;;;;;;;3.00;2.50;;;;;20.45;30.00;102765.84;5037776;28;45448;-70
2023/02/28 05:06:10;;;;;;;;;3.50;2.75;;;;;20.45;30.14;102760.56;5037550;28;45395;-70
2023/02/28 05:08:36;;;;;;;;;3.00;3.00;;;;;20.44;29.86;102758.88;5037500;28;45312;-71
2023/02/28 05:11:02;;;;;;;;;3.00;3.00;;;;;20.44;30.01;102759.72;5037661;28;45248;-71
2023/02/28 05:13:28;;;;;;;;;3.00;3.00;;;;;20.43;30.03;102757.19;5036444;28;45608;-70
2023/02/28 05:15:54;;;;;;;;;3.00;3.00;;;;;20.43;29.76;102752.72;5037066;28;46235;-71
2023/02/28 05:18:19;;;;;;;;;3.50;2.50;;;;;20.39;29.64;102749.50;5037386;28;45392;-71
2023/02/28 05:20:44;;;;;;;;;3.00;3.00;;;;;20.43;29.75;102759.84;5037783;28;45562;-70
2023/02/28 05:23:14;;;;;;;;;2.00;2.00;;;;;20.43;30.03;102765.13;5037405;28;45379;-70
2023/02/28 05:25:40;;;;;;;;;4.00;2.75;;;;;20.40;29.79;102758.28;5037281;28;45491;-71
2023/02/28 05:28:05;;;;;;;;;4.00;4.00;;;;;20.30;29.96;102750.22;5036964;28;45345;-70
2023/02/28 05:30:31;;;;;;;;;3.00;3.00;;;;;20.42;30.04;102764.28;5037211;28;45359;-71
2023/02/28 05:32:58;;;;;;;;;3.00;3.00;;;;;20.42;30.03;102766.09;5037180;28;45419;-71
2023/02/28 05:35:24;;;;;;;;;4.00;4.00;;;;;20.42;29.91;102766.09;5019178;28;47006;-70
2023/02/28 05:37:49;;;;;;;;;3.50;3.00;;;;;20.40;29.71;102772.31;5037171;28;45473;-70
2023/02/28 05:40:15;;;;;;;;;2.50;2.50;;;;;20.37;30.00;102777.88;5037386;28;45383;-71
2023/02/28 05:42:41;;;;;;;;;4.25;2.75;;;;;20.42;30.04;102774.00;5036833;28;45454;-70
2023/02/28 05:45:07;;;;;;;;;2.00;2.00;;;;;20.43;29.84;102781.81;5036913;28;46226;-71
2023/02/28 05:47:34;;;;;;;;;2.00;2.00;;;;;20.43;30.06;102784.47;5037057;28;45505;-70
2023/02/28 05:49:59;;;;;;;;;2.00;2.00;;;;;20.45;30.14;102789.63;5036925;28;45375;-70
2023/02/28 05:52:25;;;;;;;;;2.50;2.50;;;;;20.43;30.22;102781.81;5037040;28;45315;-71
2023/02/28 05:54:50;;;;;;;;;4.00;4.00;;;;;20.46;30.04;102791.31;5036260;28;46503;-71
2023/02/28 05:57:16;;;;;;;;;3.75;3.75;;;;;20.46;30.04;102784.22;5036559;28;45259;-71
2023/02/28 05:59:41;;;;;;;;;2.00;2.00;;;;;20.44;30.05;102778.22;5036916;28;45428;-70
2023/02/28 06:02:12;;;;;;;;;2.75;2.00;;;;;20.48;30.27;102784.94;5036786;28;45416;-71
2023/02/28 06:04:37;;;;;;;;;2.25;2.25;;;;;20.49;30.24;102799.00;5035355;28;47058;-70
2023/02/28 06:07:03;;;;;;;;;4.50;3.75;;;;;20.49;30.13;102797.19;5036522;28;45331;-71
2023/02/28 06:09:28;;;;;;;;;2.00;2.00;;;;;20.50;30.13;102800.69;5036704;28;45350;-71
2023/02/28 06:11:54;;;;;;;;;4.00;3.00;;;;;20.51;30.23;102797.06;5018472;28;45371;-71
2023/02/28 06:14:20;;;;;;;;;1.50;1.50;;;;;20.51;29.92;102802.34;5036182;28;46254;-70
2023/02/28 06:16:46;;;;;;;;;3.00;3.00;;;;;20.39;30.23;102781.22;5036663;28;45246;-71
2023/02/28 06:19:12;;;;;;;;;3.00;3.00;;;;;20.51;30.04;102797.06;5036547;28;45317;-70
2023/02/28 06:21:37;;;;;;;;;1.75;1.75;;;;;20.53;30.36;102794.31;5036675;28;45471;-70
2023/02/28 06:24:03;;;;;;;;;2.00;2.00;;;;;20.51;29.98;102800.56;5036453;28;45956;-71
2023/02/28 06:26:29;;;;;;;;;2.50;2.50;;;;;20.53;30.08;102796.97;5035891;28;45330;-71
2023/02/28 06:28:54;;;;;;;;;4.00;3.00;;;;;20.55;29.82;102795.03;5018388;28;45325;-71
2023/02/28 06:31:20;;;;;;;;;3.50;3.50;;;;;20.50;29.78;102788.31;5036304;28;45457;-72
2023/02/28 06:33:46;;;;;;;;;4.00;2.00;;;;;20.54;30.16;102783.59;5035611;28;46279;-71
2023/02/28 06:36:13;;;;;;;;;4.00;3.00;;;;;20.55;30.16;102798.53;5035870;28;45399;-71
2023/02/28 06:38:40;;;;;;;;;3.00;3.00;;;;;20.47;30.03;102785.06;5036107;28;45353;-71
2023/02/28 06:41:07;;;;;;;;;2.00;2.00;;;;;20.56;29.93;102797.53;5035754;28;45520;-71
2023/02/28 06:43:37;;;;;;;;;3.00;3.00;;;;;20.56;30.22;102794.91;5035200;28;47696;-71
2023/02/28 06:46:05;;;;;;;;;3.00;3.00;;;;;20.57;30.20;102799.25;5035984;28;45367;-71
2023/02/28 06:48:31;;;;;;;;;2.25;2.25;;;;;20.58;30.14;102792.16;5036089;28;45287;-71
2023/02/28 06:51:11;;;;;;;;;2.75;2.50;;;;;20.57;30.30;102793.94;5035926;28;45367;-71
2023/02/28 06:53:37;;;;;;;;;2.00;2.00;;;;;20.48;30.10;102777.00;5035827;28;46984;-71
2023/02/28 06:56:08;;;;;;;;;3.00;2.00;;;;;20.57;29.99;102783.38;5035475;28;45357;-71
2023/02/28 06:58:34;;;;;;;;;4.25;3.00;;;;;20.48;29.92;102774.34;5036151;28;45439;-71
2023/02/28 07:01:00;;;;;;;;;2.00;2.00;;;;;20.58;29.80;102792.16;5035962;28;45587;-71
2023/02/28 07:03:25;;;;;;;;;5.50;3.00;;;;;20.57;29.95;102791.31;5035665;28;46468;-71
2023/02/28 07:05:51;;;;;;;;;2.00;2.00;;;;;20.55;30.00;102790.59;5035763;28;45430;-70
2023/02/28 07:08:17;;;;;;;;;3.50;2.50;;;;;20.59;29.96;102791.16;5035978;28;45414;-71
2023/02/28 07:10:42;;;;;;;;;1.25;1.00;;;;;20.59;29.92;102805.25;5035412;28;45374;-70
2023/02/28 07:13:08;;;;;;;;;3.25;3.25;;;;;20.60;30.18;102803.44;5035625;28;46290;-71
2023/02/28 07:15:35;;;;;;;;;2.00;2.00;;;;;20.60;30.06;102803.44;5035515;28;45368;-73
2023/02/28 07:18:00;;;;;;;;;4.00;3.75;;;;;20.60;29.96;102804.28;5035794;28;45347;-73
2023/02/28 07:20:26;;;;;;;;;3.00;3.00;;;;;20.20;29.84;102743.97;5035540;28;45621;-74
2023/02/28 07:22:56;;;;;;;;;3.00;3.00;;;;;20.61;30.06;102819.19;5035604;28;45335;-73
2023/02/28 07:25:25;;;;;;;;;4.00;3.00;;;;;20.63;29.94;102814.59;5034474;28;45434;-75
2023/02/28 07:27:53;;;;;;;;;5.25;4.00;;;;;20.65;30.12;102814.50;5017625;28;45389;-74
2023/02/28 07:30:18;;;;;;;;;3.50;2.00;;;;;20.56;30.22;102802.00;5035391;28;45446;-73
2023/02/28 07:32:44;;;;;;;;;2.00;2.00;;;;;20.67;30.30;102815.22;5035341;28;47083;-74
2023/02/28 07:35:09;;;;;;;;;3.75;3.00;;;;;20.69;30.56;102817.72;5035427;28;45427;-76
2023/02/28 07:37:37;;;;;;;;;3.00;3.00;;;;;20.70;30.28;102822.06;5035381;28;46217;-72
2023/02/28 07:40:07;;;;;;;;;11.25;9.25;;;;;20.61;28.17;102808.59;5035493;28;46165;-74
2023/02/28 07:42:32;;;;;;;;;5.25;5.25;;;;;20.55;29.21;102818.84;5035095;28;46040;-74
2023/02/28 07:44:58;;;;;;;;;4.25;4.25;;;;;20.57;29.50;102815.09;5017789;28;45232;-74
2023/02/28 07:47:24;;;;;;;;;5.75;5.75;;;;;20.61;29.78;102818.31;5010683;28;45576;-74
2023/02/28 07:49:49;;;;;;;;;3.50;3.25;;;;;20.60;29.79;102821.94;5030186;28;46402;-74
2023/02/28 07:52:15;;;;;;;;;4.00;4.00;;;;;20.57;30.06;102812.47;5030067;28;47312;-74
2023/02/28 07:54:40;;;;;;;;;4.00;4.00;;;;;20.67;30.32;102823.13;5031170;28;45589;-74
2023/02/28 07:57:05;;;;;;;;;2.00;2.00;;;;;20.71;30.07;102821.91;5019990;28;45528;-74
2023/02/28 07:59:30;;;;;;;;;3.25;3.00;;;;;20.73;29.96;102829.75;5034129;28;46353;-74
2023/02/28 08:01:57;;;;;;;;;3.25;3.25;;;;;20.79;29.77;102829.25;5034669;28;46277;-74
2023/02/28 08:04:22;;;;;;;;;4.50;3.25;;;;;20.83;30.18;102824.56;5034381;28;45493;-72
2023/02/28 08:06:48;;;;;;;;;3.00;3.00;;;;;20.89;29.83;102831.16;5034040;28;45527;-75
2023/02/28 08:09:14;;;;;;;;;2.50;2.50;;;;;20.93;29.91;102835.22;5034408;28;45358;-75
2023/02/28 08:11:39;;;;;;;;;3.75;2.00;;;;;20.99;29.77;102842.69;5033896;28;46203;-74
2023/02/28 08:14:05;;;;;;;;;3.50;3.50;;;;;21.03;29.92;102838.00;5034029;28;45395;-73
2023/02/28 08:16:30;;;;;;;;;4.25;2.00;;;;;21.09;29.69;102840.16;5033451;28;45361;-74
2023/02/28 08:18:56;;;;;;;;;3.25;3.00;;;;;21.14;29.52;102831.84;5034145;28;45597;-74
2023/02/28 08:21:21;;;;;;;;;4.00;4.00;;;;;21.10;29.60;102820.69;5033483;28;45953;-75
2023/02/28 08:23:48;;;;;;;;;2.25;2.25;;;;;21.16;29.86;102817.50;5034129;28;45344;-74
2023/02/28 08:26:14;;;;;;;;;2.75;2.50;;;;;21.29;29.88;102835.03;5033219;28;45596;-74
2023/02/28 08:28:39;;;;;;;;;2.25;2.25;;;;;21.36;29.77;102830.94;5034659;28;45490;-74
2023/02/28 08:31:13;;;;;;;;;2.25;2.25;;;;;21.41;29.39;102838.47;5026269;28;45763;-74
2023/02/28 08:33:39;;;;;;;;;2.00;2.00;;;;;21.47;29.65;102831.81;5034566;28;46449;-74
2023/02/28 08:36:06;;;;;;;;;5.00;3.00;;;;;21.51;29.68;102828.81;5033902;28;46350;-73
2023/02/28 08:38:31;;;;;;;;;2.00;2.00;;;;;21.48;29.55;102825.56;5033488;28;45541;-74
2023/02/28 08:40:59;;;;;;;;;2.00;2.00;;;;;21.57;29.58;102835.38;5033897;28;46427;-74
2023/02/28 08:43:24;;;;;;;;;3.25;2.75;;;;;21.58;29.66;102834.41;5033831;28;45419;-74
2023/02/28 08:45:52;;;;;;;;;2.25;2.25;;;;;21.59;29.51;102835.25;5033785;28;45729;-74
2023/02/28 08:48:17;;;;;;;;;3.00;3.00;;;;;21.57;29.22;102832.72;5033671;28;45384;-74
2023/02/28 08:50:42;;;;;;;;;3.00;3.00;;;;;21.57;29.32;102823.97;5033256;28;46587;-74
2023/02/28 08:53:08;;;;;;;;;3.00;3.00;;;;;21.56;29.48;102836.38;5033138;28;45682;-74
2023/02/28 08:55:33;;;;;;;;;3.50;3.00;;;;;21.54;29.18;102834.81;5033828;28;46176;-74
2023/02/28 08:57:58;;;;;;;;;4.50;3.00;;;;;21.50;29.16;102835.06;5033815;28;45464;-74
2023/02/28 09:00:24;;;;;;;;;3.00;3.00;;;;;21.49;29.39;102837.84;5033310;28;45440;-74
2023/02/28 09:02:49;;;;;;;;;3.00;3.00;;;;;21.48;29.52;102842.28;5033468;28;45592;-73
2023/02/28 09:05:14;;;;;;;;;4.00;3.50;;;;;21.47;29.50;102837.97;5033067;28;45580;-74
2023/02/28 09:07:40;;;;;;;;;2.00;2.00;;;;;21.46;29.67;102830.16;5033481;28;45457;-74
2023/02/28 09:10:06;;;;;;;;;2.50;2.00;;;;;21.44;29.57;102824.16;5033822;28;48213;-74
2023/02/28 09:12:35;;;;;;;;;5.00;2.00;;;;;21.33;29.73;102822.38;5033157;28;46708;-74
2023/02/28 09:15:00;;;;;;;;;3.00;2.50;;;;;21.38;29.64;102829.00;5033598;28;45544;-74
2023/02/28 09:17:25;;;;;;;;;4.00;3.00;;;;;21.36;29.49;102843.31;5032924;28;45475;-74
2023/02/28 09:19:51;;;;;;;;;2.75;2.25;;;;;21.35;29.88;102837.19;5033438;28;45436;-75
2023/02/28 09:22:16;;;;;;;;;5.00;3.50;;;;;21.32;29.73;102831.28;5033209;28;45402;-76
2023/02/28 09:24:41;;;;;;;;;2.50;2.50;;;;;21.28;29.60;102852.75;5033496;28;45395;-76
2023/02/28 09:27:07;;;;;;;;;3.00;3.00;;;;;21.30;29.72;102842.00;5016577;28;45245;-76
2023/02/28 09:29:33;;;;;;;;;4.00;3.50;;;;;21.28;29.67;102842.16;5032830;28;45351;-76
2023/02/28 09:31:59;;;;;;;;;3.25;3.25;;;;;21.27;29.68;102844.91;5033295;28;45485;-75
2023/02/28 09:34:26;;;;;;;;;4.00;2.50;;;;;21.23;29.59;102833.75;5031886;28;46468;-75
2023/02/28 09:36:54;;;;;;;;;2.50;2.00;;;;;21.22;29.60;102836.50;5032378;28;45358;-76
2023/02/28 09:39:23;;;;;;;;;1.00;1.00;;;;;21.21;29.99;102840.13;5032360;28;45966;-75
2023/02/28 09:41:52;;;;;;;;;2.00;2.00;;;;;21.18;29.62;102833.28;5032722;28;45912;-76
2023/02/28 09:44:32;;;;;;;;;3.00;3.00;;;;;21.13;29.58;102841.56;5032392;28;45439;-76
2023/02/28 09:47:20;;;;;;;;;3.00;3.00;;;;;21.15;29.51;102839.66;5031982;28;45355;-75
2023/02/28 09:49:47;;;;;;;;;4.00;4.00;;;;;21.14;29.70;102848.56;5030978;28;45543;-76
2023/02/28 09:52:19;;;;;;;;;2.75;2.25;;;;;21.14;29.77;102845.06;5032546;28;45400;-76
2023/02/28 09:54:45;;;;;;;;;3.50;3.50;;;;;21.12;29.99;102839.06;5032402;28;45771;-75
2023/02/28 09:57:18;;;;;;;;;4.00;3.50;;;;;21.05;29.90;102831.63;5032459;28;46530;-75
2023/02/28 09:59:48;;;;;;;;;2.00;2.00;;;;;21.10;29.64;102843.66;5032380;28;45668;-75
2023/02/28 10:02:41;;;;;;;;;3.25;2.25;;;;;21.08;29.84;102830.53;5032173;28;45599;-76
2023/02/28 10:05:18;;;;;;;;;2.00;2.00;;;;;21.08;29.61;102832.34;5031935;28;45444;-75
2023/02/28 10:08:01;;;;;;;;;4.50;3.00;;;;;21.06;29.79;102835.97;5031651;28;45426;-75
2023/02/28 10:10:51;;;;;;;;;4.00;2.50;;;;;20.94;29.82;102811.31;5030538;28;46158;-75
2023/02/28 10:13:34;;;;;;;;;3.00;3.00;;;;;21.03;29.70;102833.56;5031172;28;45394;-75
2023/02/28 10:16:16;;;;;;;;;2.50;2.00;;;;;20.96;29.79;102822.59;5031611;28;45342;-76
2023/02/28 10:18:42;;;;;;;;;2.00;2.00;;;;;21.00;29.69;102819.72;5027041;28;45643;-76
2023/02/28 10:21:21;;;;;;;;;3.00;3.00;;;;;21.00;29.46;102822.38;5032485;28;46182;-75
2023/02/28 10:23:48;;;;;;;;;3.00;3.00;;;;;20.99;29.57;102821.50;5031992;28;45421;-76
2023/02/28 10:26:17;;;;;;;;;3.00;3.00;;;;;20.98;29.56;102826.91;5032145;28;46288;-76
2023/02/28 10:28:43;;;;;;;;;3.25;2.25;;;;;20.95;29.35;102818.25;5032318;28;45323;-75
2023/02/28 10:31:17;;;;;;;;;2.00;2.00;;;;;20.91;29.27;102824.78;5032273;28;46241;-76
2023/02/28 10:33:42;;;;;;;;;4.00;3.00;;;;;20.95;29.36;102822.72;5031587;28;45418;-76
2023/02/28 10:36:13;;;;;;;;;4.00;2.00;;;;;20.89;29.44;102810.84;5032519;28;45402;-76
2023/02/28 10:38:39;;;;;;;;;3.00;2.00;;;;;20.92;29.58;102823.81;5031965;28;45879;-76
2023/02/28 10:41:11;;;;;;;;;3.75;3.00;;;;;20.93;29.33;102824.66;5031973;28;45386;-76
2023/02/28 10:43:39;;;;;;;;;6.00;3.00;;;;;20.90;28.93;102807.22;5031253;28;45786;-76
2023/02/28 10:46:10;;;;;;;;;4.00;3.00;;;;;20.91;29.24;102821.28;5031878;28;45468;-75
2023/02/28 10:48:45;;;;;;;;;3.00;2.00;;;;;20.88;29.16;102811.78;5031527;28;45326;-75
2023/02/28 10:51:16;;;;;;;;;3.50;3.00;;;;;20.89;29.42;102797.63;5032270;28;46380;-75
2023/02/28 10:53:55;;;;;;;;;5.00;4.00;;;;;20.90;29.57;102803.72;5031078;28;45912;-75
2023/02/28 10:56:23;;;;;;;;;3.00;3.00;;;;;20.90;29.47;102793.13;5031970;28;45358;-75
2023/02/28 10:58:57;;;;;;;;;3.50;3.00;;;;;20.89;29.50;102789.69;5031211;28;45593;-75
2023/02/28 11:01:44;;;;;;;;;3.50;3.00;;;;;20.89;29.21;102787.03;5031238;28;45995;-75
2023/02/28 11:04:32;;;;;;;;;1.75;1.75;;;;;20.88;29.29;102776.56;5032366;28;45550;-78
2023/02/28 11:07:22;;;;;;;;;1.00;1.00;;;;;20.92;29.43;102784.09;5031668;28;45469;-76
2023/02/28 11:09:52;;;;;;;;;3.00;2.00;;;;;20.94;29.21;102779.56;5021200;28;45494;-77
2023/02/28 11:12:25;;;;;;;;;2.75;2.00;;;;;20.96;29.18;102767.03;5031054;28;46469;-76
2023/02/28 11:14:55;;;;;;;;;2.25;1.75;;;;;20.99;29.35;102770.38;5031035;28;45564;-76
2023/02/28 11:17:24;;;;;;;;;3.25;3.25;;;;;21.01;29.23;102771.97;5031407;28;45511;-77
2023/02/28 11:19:59;;;;;;;;;6.00;5.00;;;;;21.02;29.61;102772.81;5031376;28;45790;-76
2023/02/28 11:22:31;;;;;;;;;5.75;5.75;;;;;21.02;29.44;102763.09;5025681;28;47176;-76
2023/02/28 11:25:01;;;;;;;;;7.25;5.25;;;;;21.01;29.69;102742.88;5030357;28;45490;-76
2023/02/28 11:27:33;;;;;;;;;6.00;4.50;;;;;21.06;29.89;102750.41;5031260;28;45540;-75
2023/02/28 11:30:00;;;;;;;;;9.50;7.25;;;;;21.08;29.83;102747.66;5030322;28;45434;-75
2023/02/28 11:32:30;;;;;;;;;5.75;5.25;;;;;21.09;30.07;102758.09;5031255;28;46331;-75
2023/02/28 11:35:10;;;;;;;;;6.00;5.00;;;;;21.11;29.91;102752.69;5030076;28;45563;-76